createdAt,value
2023-01-06T00:01:13.100Z,9.59
2023-01-06T00:03:40.081Z,9.61
2023-01-06T00:06:09.527Z,9.53
2023-01-06T00:08:37.117Z,9.53
2023-01-06T00:11:15.008Z,9.41
2023-01-06T00:13:42.243Z,9.39
2023-01-06T00:16:11.977Z,9.33
2023-01-06T00:18:39.468Z,9.28
2023-01-06T00:21:07.397Z,9.22
2023-01-06T00:23:35.458Z,9.21
2023-01-06T00:26:02.890Z,9.19
2023-01-06T00:28:29.970Z,9.12
2023-01-06T00:30:56.952Z,9.09
2023-01-06T00:33:24.171Z,9.06
2023-01-06T00:35:51.431Z,9.02
2023-01-06T00:38:19.437Z,9.05
2023-01-06T00:40:47.438Z,9.04
2023-01-06T00:43:14.227Z,9.03
2023-01-06T00:45:41.045Z,9.04
2023-01-06T00:48:08.569Z,9.01
2023-01-06T00:50:36.119Z,9.06
2023-01-06T00:53:03.510Z,9.13
2023-01-06T00:55:30.263Z,9.21
2023-01-06T00:57:57.071Z,9.29
2023-01-06T01:00:24.004Z,9.36
2023-01-06T01:02:50.846Z,9.43
2023-01-06T01:05:17.846Z,9.48
2023-01-06T01:07:44.634Z,9.54
2023-01-06T01:10:11.594Z,9.58
2023-01-06T01:12:39.702Z,9.61
2023-01-06T01:15:06.977Z,9.64
2023-01-06T01:17:33.898Z,9.66
2023-01-06T01:20:01.252Z,9.70
2023-01-06T01:22:31.751Z,9.73
2023-01-06T01:25:00.914Z,9.75
2023-01-06T01:27:31.976Z,9.79
2023-01-06T01:29:58.699Z,9.83
2023-01-06T01:32:25.570Z,9.83
2023-01-06T01:34:52.360Z,9.88
2023-01-06T01:37:19.949Z,9.90
2023-01-06T01:39:47.320Z,9.95
2023-01-06T01:42:18.352Z,9.95
2023-01-06T01:44:55.994Z,9.96
2023-01-06T01:47:46.406Z,9.91
2023-01-06T01:50:16.187Z,9.96
2023-01-06T01:52:45.506Z,10.00
2023-01-06T01:55:14.461Z,10.03
2023-01-06T01:57:47.577Z,10.01
2023-01-06T02:00:14.610Z,10.05
2023-01-06T02:02:43.331Z,10.05
2023-01-06T02:05:15.344Z,10.02
2023-01-06T02:07:42.247Z,10.06
2023-01-06T02:10:13.511Z,10.06
2023-01-06T02:12:41.975Z,10.08
2023-01-06T02:15:19.501Z,10.06
2023-01-06T02:17:59.225Z,10.02
2023-01-06T02:20:36.289Z,10.06
2023-01-06T02:23:18.864Z,10.04
2023-01-06T02:26:22.679Z,9.93
2023-01-06T02:29:11.336Z,9.93
2023-01-06T02:31:57.435Z,9.94
2023-01-06T02:34:33.420Z,9.97
2023-01-06T02:37:25.810Z,9.96
2023-01-06T02:40:11.233Z,10.07
2023-01-06T02:43:10.246Z,9.98
2023-01-06T02:46:08.353Z,9.93
2023-01-06T02:48:51.035Z,9.98
2023-01-06T02:51:40.057Z,10.06
2023-01-06T02:54:20.422Z,10.05
2023-01-06T02:56:57.962Z,10.09
2023-01-06T02:59:31.728Z,10.09
2023-01-06T03:01:59.787Z,10.13
2023-01-06T03:04:31.750Z,10.13
2023-01-06T03:07:02.461Z,10.13
2023-01-06T03:09:37.457Z,10.16
2023-01-06T03:12:28.530Z,10.17
2023-01-06T03:14:57.098Z,10.19
2023-01-06T03:17:25.370Z,10.20
2023-01-06T03:19:52.420Z,10.23
2023-01-06T03:22:20.263Z,10.23
2023-01-06T03:24:47.826Z,10.22
2023-01-06T03:27:18.169Z,10.21
2023-01-06T03:29:45.419Z,10.18
2023-01-06T03:32:18.998Z,10.17
2023-01-06T03:35:13.976Z,10.03
2023-01-06T03:38:05.332Z,10.06
2023-01-06T03:40:40.730Z,10.16
2023-01-06T03:43:39.704Z,10.10
2023-01-06T03:46:18.576Z,10.09
2023-01-06T03:49:00.568Z,10.13
2023-01-06T03:52:00.125Z,10.00
2023-01-06T03:54:59.545Z,10.03
2023-01-06T03:57:33.450Z,10.10
2023-01-06T04:00:26.070Z,10.03
2023-01-06T04:02:59.256Z,10.14
2023-01-06T04:05:28.635Z,10.12
2023-01-06T04:07:59.015Z,10.10
2023-01-06T04:10:27.639Z,10.05
2023-01-06T04:12:57.318Z,10.01
2023-01-06T04:15:29.603Z,10.01
2023-01-06T04:17:58.371Z,10.00
2023-01-06T04:20:28.565Z,10.00
2023-01-06T04:23:09.809Z,10.00
2023-01-06T04:25:39.442Z,10.02
2023-01-06T04:28:14.021Z,10.06
2023-01-06T04:30:41.583Z,10.11
2023-01-06T04:33:08.559Z,10.15
2023-01-06T04:35:37.336Z,10.15
2023-01-06T04:38:04.184Z,10.15
2023-01-06T04:40:30.978Z,10.17
2023-01-06T04:43:06.700Z,10.18
2023-01-06T04:45:35.079Z,10.16
2023-01-06T04:48:02.293Z,10.16
2023-01-06T04:50:29.099Z,10.16
2023-01-06T04:52:55.911Z,10.15
2023-01-06T04:55:23.025Z,10.13
2023-01-06T04:57:49.855Z,10.09
2023-01-06T05:00:17.363Z,10.06
2023-01-06T05:02:44.867Z,10.01
2023-01-06T05:05:12.161Z,10.00
2023-01-06T05:07:39.195Z,9.98
2023-01-06T05:10:07.988Z,9.97
2023-01-06T05:12:36.818Z,9.94
2023-01-06T05:15:06.685Z,9.92
2023-01-06T05:17:33.801Z,9.87
2023-01-06T05:20:00.646Z,9.80
2023-01-06T05:22:27.422Z,9.73
2023-01-06T05:24:54.189Z,9.65
2023-01-06T05:27:20.954Z,9.54
2023-01-06T05:29:47.890Z,9.43
2023-01-06T05:32:14.804Z,9.30
2023-01-06T05:34:41.578Z,9.21
2023-01-06T05:37:08.341Z,9.11
2023-01-06T05:39:35.058Z,9.07
2023-01-06T05:42:01.775Z,9.03
2023-01-06T05:44:28.570Z,9.00
2023-01-06T05:46:55.345Z,8.92
2023-01-06T05:49:22.124Z,8.86
2023-01-06T05:51:49.316Z,8.78
2023-01-06T05:54:16.133Z,8.74
2023-01-06T05:56:42.920Z,8.66
2023-01-06T05:59:09.667Z,8.61
2023-01-06T06:01:36.485Z,8.55
2023-01-06T06:04:03.461Z,8.53
2023-01-06T06:06:31.085Z,8.53
2023-01-06T06:08:58.822Z,8.53
2023-01-06T06:11:25.801Z,8.51
2023-01-06T06:13:55.214Z,8.50
2023-01-06T06:16:27.782Z,8.52
2023-01-06T06:18:57.619Z,8.55
2023-01-06T06:21:26.664Z,8.58
2023-01-06T06:23:54.753Z,8.59
2023-01-06T06:26:22.111Z,8.60
2023-01-06T06:28:48.960Z,8.63
2023-01-06T06:31:20.915Z,8.60
2023-01-06T06:33:51.528Z,8.54
2023-01-06T06:36:18.446Z,8.49
2023-01-06T06:38:50.062Z,8.43
2023-01-06T06:41:17.405Z,8.40
2023-01-06T06:43:44.701Z,8.40
2023-01-06T06:46:12.090Z,8.39
2023-01-06T06:48:39.409Z,8.40
2023-01-06T06:51:17.122Z,8.42
2023-01-06T06:53:44.172Z,8.52
2023-01-06T06:56:12.495Z,8.58
2023-01-06T06:58:39.602Z,8.68
2023-01-06T07:01:11.681Z,8.78
2023-01-06T07:03:38.808Z,8.94
2023-01-06T07:06:08.750Z,9.06
2023-01-06T07:08:35.723Z,9.20
2023-01-06T07:11:02.995Z,9.36
2023-01-06T07:13:29.828Z,9.56
2023-01-06T07:15:56.638Z,9.67
2023-01-06T07:18:23.467Z,9.73
2023-01-06T07:20:54.141Z,9.75
2023-01-06T07:23:22.507Z,9.81
2023-01-06T07:25:54.200Z,9.87
2023-01-06T07:28:21.115Z,9.86
2023-01-06T07:30:47.994Z,9.83
2023-01-06T07:33:14.999Z,9.82
2023-01-06T07:35:41.809Z,9.80
2023-01-06T07:38:09.333Z,9.86
2023-01-06T07:40:37.378Z,9.91
2023-01-06T07:43:11.605Z,9.90
2023-01-06T07:45:38.741Z,10.05
2023-01-06T07:48:06.979Z,10.17
2023-01-06T07:50:33.751Z,10.30
2023-01-06T07:53:02.227Z,10.42
2023-01-06T07:55:30.174Z,10.49
2023-01-06T07:57:58.704Z,10.51
2023-01-06T08:00:25.729Z,10.51
2023-01-06T08:02:52.646Z,10.51
2023-01-06T08:05:19.575Z,10.52
2023-01-06T08:07:46.393Z,10.56
2023-01-06T08:10:13.171Z,10.65
2023-01-06T08:12:40.051Z,10.71
2023-01-06T08:15:07.378Z,10.83
2023-01-06T08:17:34.152Z,11.00
2023-01-06T08:20:00.962Z,11.17
2023-01-06T08:22:30.008Z,11.32
2023-01-06T08:24:56.783Z,11.47
2023-01-06T08:27:24.298Z,11.64
2023-01-06T08:29:52.228Z,11.79
2023-01-06T08:32:19.022Z,11.93
2023-01-06T08:34:45.744Z,12.02
2023-01-06T08:37:12.574Z,12.08
2023-01-06T08:39:39.452Z,12.06
2023-01-06T08:42:06.370Z,12.00
2023-01-06T08:44:33.176Z,11.97
2023-01-06T08:46:59.961Z,11.91
2023-01-06T08:49:26.841Z,11.92
2023-01-06T08:51:53.761Z,11.96
2023-01-06T08:54:20.653Z,11.99
2023-01-06T08:56:47.454Z,11.98
2023-01-06T08:59:16.282Z,11.94
2023-01-06T09:01:44.197Z,11.93
2023-01-06T09:04:12.794Z,11.92
2023-01-06T09:06:41.890Z,11.92
2023-01-06T09:09:11.863Z,11.92
2023-01-06T09:11:41.232Z,11.86
2023-01-06T09:14:09.467Z,11.79
2023-01-06T09:16:36.266Z,11.76
2023-01-06T09:19:03.277Z,11.74
2023-01-06T09:21:31.790Z,11.72
2023-01-06T09:23:58.806Z,11.72
2023-01-06T09:26:25.742Z,11.71
2023-01-06T09:28:52.504Z,11.70
2023-01-06T09:31:19.584Z,11.64
2023-01-06T09:33:46.523Z,11.59
2023-01-06T09:36:13.343Z,11.58
2023-01-06T09:38:40.115Z,11.61
2023-01-06T09:41:25.392Z,11.67
2023-01-06T09:44:14.805Z,11.68
2023-01-06T09:46:44.645Z,11.75
2023-01-06T09:49:52.215Z,11.72
2023-01-06T09:52:24.570Z,11.80
2023-01-06T09:55:27.395Z,11.81
2023-01-06T09:58:17.622Z,11.79
2023-01-06T10:00:52.864Z,11.86
2023-01-06T10:03:21.219Z,11.96
2023-01-06T10:06:21.487Z,11.91
2023-01-06T10:09:08.751Z,11.96
2023-01-06T10:11:53.546Z,12.03
2023-01-06T10:14:22.899Z,12.18
2023-01-06T10:17:11.058Z,12.17
2023-01-06T10:19:59.055Z,12.28
2023-01-06T10:22:36.633Z,12.35
2023-01-06T10:25:12.475Z,12.40
2023-01-06T10:27:48.878Z,12.36
2023-01-06T10:30:44.307Z,12.30
2023-01-06T10:33:29.756Z,12.33
2023-01-06T10:35:57.754Z,12.48
2023-01-06T10:38:46.824Z,12.45
2023-01-06T10:41:27.699Z,12.50
2023-01-06T10:43:54.592Z,12.62
2023-01-06T10:46:21.595Z,12.63
2023-01-06T10:48:52.226Z,12.61
2023-01-06T10:51:39.317Z,12.69
2023-01-06T10:54:15.119Z,12.55
2023-01-06T10:56:47.322Z,12.68
2023-01-06T10:59:14.335Z,12.82
2023-01-06T11:01:59.319Z,12.78
2023-01-06T11:04:28.300Z,12.96
2023-01-06T11:07:03.431Z,12.98
2023-01-06T11:09:41.564Z,13.01
2023-01-06T11:12:21.011Z,13.01
2023-01-06T11:15:00.399Z,12.99
2023-01-06T11:17:28.488Z,13.18
2023-01-06T11:20:07.508Z,13.17
2023-01-06T11:22:36.092Z,13.28
2023-01-06T11:25:04.403Z,13.31
2023-01-06T11:27:31.296Z,13.29
2023-01-06T11:29:58.059Z,13.19
2023-01-06T11:32:29.858Z,13.01
2023-01-06T11:35:02.962Z,12.86
2023-01-06T11:37:42.141Z,12.76
2023-01-06T11:40:26.791Z,12.66
2023-01-06T11:42:58.219Z,12.63
2023-01-06T11:45:42.067Z,12.53
2023-01-06T11:48:20.966Z,12.55
2023-01-06T11:50:56.492Z,12.59
2023-01-06T11:53:25.966Z,12.70
2023-01-06T11:56:05.506Z,12.65
2023-01-06T11:59:04.433Z,12.62
2023-01-06T12:01:36.394Z,12.66
2023-01-06T12:04:37.710Z,12.60
2023-01-06T12:07:19.115Z,12.62
2023-01-06T12:09:49.415Z,12.66
2023-01-06T12:12:21.789Z,12.68
2023-01-06T12:14:48.814Z,12.74
2023-01-06T12:17:51.128Z,12.81
2023-01-06T12:20:24.409Z,12.77
2023-01-06T12:22:51.027Z,12.43
2023-01-06T12:25:48.226Z,12.59
2023-01-06T12:28:17.890Z,12.82
2023-01-06T12:30:54.362Z,12.83
2023-01-06T12:33:30.278Z,12.83
2023-01-06T12:36:06.081Z,12.84
2023-01-06T12:38:42.105Z,12.82
2023-01-06T12:41:29.854Z,12.82
2023-01-06T12:44:17.788Z,12.73
2023-01-06T12:47:19.192Z,12.78
2023-01-06T12:49:45.942Z,12.81
2023-01-06T12:52:42.053Z,12.73
2023-01-06T12:55:19.039Z,12.66
2023-01-06T12:58:08.707Z,12.41
2023-01-06T13:00:53.334Z,12.35
2023-01-06T13:03:55.279Z,12.21
2023-01-06T13:06:40.575Z,12.06
2023-01-06T13:09:16.571Z,12.18
2023-01-06T13:12:05.075Z,12.14
2023-01-06T13:14:47.006Z,12.11
2023-01-06T13:17:25.717Z,12.04
2023-01-06T13:19:53.894Z,12.01
2023-01-06T13:22:47.845Z,11.90
2023-01-06T13:25:44.916Z,11.78
2023-01-06T13:28:25.216Z,11.77
2023-01-06T13:31:23.340Z,11.67
2023-01-06T13:34:34.496Z,11.69
2023-01-06T13:37:36.851Z,11.71
2023-01-06T13:40:16.690Z,11.69
2023-01-06T13:43:07.981Z,11.72
2023-01-06T13:45:39.335Z,11.67
2023-01-06T13:48:09.128Z,11.61
2023-01-06T13:50:38.356Z,11.58
2023-01-06T13:53:06.332Z,11.58
2023-01-06T13:55:39.053Z,11.61
2023-01-06T13:58:38.836Z,11.57
2023-01-06T14:01:07.677Z,11.81
2023-01-06T14:03:35.186Z,11.88
2023-01-06T14:06:04.052Z,11.96
2023-01-06T14:08:38.033Z,12.01
2023-01-06T14:11:27.214Z,12.05
2023-01-06T14:13:59.852Z,12.07
2023-01-06T14:16:41.677Z,11.99
2023-01-06T14:19:23.071Z,12.07
2023-01-06T14:21:52.472Z,12.11
2023-01-06T14:24:19.208Z,12.12
2023-01-06T14:26:51.213Z,12.11
2023-01-06T14:29:40.249Z,12.06
2023-01-06T14:32:11.866Z,12.13
2023-01-06T14:34:58.783Z,12.16
2023-01-06T14:37:34.527Z,12.16
2023-01-06T14:40:02.757Z,12.19
2023-01-06T14:42:43.743Z,12.20
2023-01-06T14:45:23.402Z,12.18
2023-01-06T14:48:10.467Z,12.13
2023-01-06T14:50:47.167Z,12.19
2023-01-06T14:53:23.126Z,12.20
2023-01-06T14:55:50.872Z,12.19
2023-01-06T14:58:47.166Z,12.07
2023-01-06T15:01:26.590Z,12.12
2023-01-06T15:03:59.856Z,12.11
2023-01-06T15:06:28.049Z,11.80
2023-01-06T15:09:11.206Z,12.08
2023-01-06T15:11:41.951Z,12.06
2023-01-06T15:14:24.374Z,12.03
2023-01-06T15:16:51.389Z,12.11
2023-01-06T15:19:18.349Z,12.11
2023-01-06T15:21:47.640Z,12.10
2023-01-06T15:24:36.606Z,11.96
2023-01-06T15:27:14.282Z,12.01
2023-01-06T15:29:56.542Z,11.95
2023-01-06T15:32:26.476Z,11.91
2023-01-06T15:34:56.699Z,11.85
2023-01-06T15:37:31.106Z,11.77
2023-01-06T15:39:58.689Z,11.72
2023-01-06T15:42:26.815Z,11.68
2023-01-06T15:45:01.554Z,11.61
2023-01-06T15:47:39.882Z,11.55
2023-01-06T15:50:09.506Z,11.48
2023-01-06T15:52:49.525Z,11.28
2023-01-06T15:55:25.139Z,11.21
2023-01-06T15:57:57.548Z,11.13
2023-01-06T16:00:27.296Z,11.01
2023-01-06T16:02:54.497Z,10.92
2023-01-06T16:05:40.327Z,10.78
2023-01-06T16:08:25.621Z,10.78
2023-01-06T16:11:12.267Z,10.71
2023-01-06T16:13:41.205Z,10.76
2023-01-06T16:16:16.975Z,10.76
2023-01-06T16:18:44.932Z,10.81
2023-01-06T16:21:23.108Z,10.79
2023-01-06T16:23:54.049Z,10.88
2023-01-06T16:26:27.653Z,10.92
2023-01-06T16:28:59.902Z,10.97
2023-01-06T16:31:32.772Z,11.02
2023-01-06T16:34:35.473Z,10.97
2023-01-06T16:37:04.018Z,11.13
2023-01-06T16:39:30.798Z,11.17
2023-01-06T16:42:00.479Z,11.21
2023-01-06T16:44:29.694Z,11.21
2023-01-06T16:47:00.832Z,11.21
2023-01-06T16:49:29.318Z,11.25
2023-01-06T16:51:56.192Z,11.27
2023-01-06T16:54:23.634Z,11.30
2023-01-06T16:56:52.191Z,11.32
2023-01-06T16:59:20.077Z,11.32
2023-01-06T17:01:48.532Z,11.32
2023-01-06T17:04:16.265Z,11.33
2023-01-06T17:06:45.650Z,11.32
2023-01-06T17:09:20.904Z,11.24
2023-01-06T17:11:48.977Z,11.28
2023-01-06T17:14:21.240Z,11.20
2023-01-06T17:16:49.006Z,11.20
2023-01-06T17:19:26.832Z,11.19
2023-01-06T17:22:26.324Z,11.15
2023-01-06T17:24:54.366Z,11.20
2023-01-06T17:27:24.004Z,11.24
2023-01-06T17:29:51.754Z,11.25
2023-01-06T17:32:41.391Z,11.19
2023-01-06T17:35:29.407Z,11.18
2023-01-06T17:38:13.554Z,11.15
2023-01-06T17:40:40.371Z,11.22
2023-01-06T17:43:27.466Z,11.17
2023-01-06T17:45:54.441Z,11.24
2023-01-06T17:48:21.421Z,11.22
2023-01-06T17:50:54.056Z,11.10
2023-01-06T17:53:52.416Z,11.08
2023-01-06T17:56:20.978Z,11.12
2023-01-06T17:58:48.041Z,11.15
2023-01-06T18:01:27.621Z,11.11
2023-01-06T18:03:57.591Z,11.18
2023-01-06T18:06:37.279Z,11.19
2023-01-06T18:09:12.099Z,11.20
2023-01-06T18:11:49.740Z,11.18
2023-01-06T18:14:38.797Z,11.19
2023-01-06T18:17:15.283Z,11.19
2023-01-06T18:19:42.370Z,11.24
2023-01-06T18:22:21.472Z,11.20
2023-01-06T18:24:57.615Z,11.23
2023-01-06T18:27:27.859Z,11.23
2023-01-06T18:30:01.542Z,11.21
2023-01-06T18:32:33.502Z,11.21
2023-01-06T18:35:01.718Z,11.19
2023-01-06T18:37:34.347Z,11.17
2023-01-06T18:40:13.646Z,11.14
2023-01-06T18:42:49.576Z,11.14
2023-01-06T18:45:36.539Z,11.04
2023-01-06T18:48:11.975Z,11.06
2023-01-06T18:50:44.485Z,11.09
2023-01-06T18:53:13.991Z,11.08
2023-01-06T18:55:56.890Z,11.03
2023-01-06T18:58:52.846Z,11.05
2023-01-06T19:01:32.498Z,11.12
2023-01-06T19:04:04.359Z,11.10
2023-01-06T19:06:38.285Z,11.06
2023-01-06T19:09:31.352Z,10.90
2023-01-06T19:12:03.248Z,10.92
2023-01-06T19:14:36.422Z,10.94
2023-01-06T19:17:03.541Z,10.90
2023-01-06T19:19:38.907Z,10.86
2023-01-06T19:22:28.892Z,10.81
2023-01-06T19:25:04.123Z,10.81
2023-01-06T19:28:02.002Z,10.85
2023-01-06T19:30:32.136Z,10.85
2023-01-06T19:33:21.635Z,10.86
2023-01-06T19:35:49.238Z,10.88
2023-01-06T19:38:31.324Z,10.89
2023-01-06T19:41:01.785Z,10.94
2023-01-06T19:43:32.459Z,10.99
2023-01-06T19:46:04.754Z,11.01
2023-01-06T19:48:41.510Z,10.99
2023-01-06T19:51:33.887Z,10.97
2023-01-06T19:54:04.588Z,11.03
2023-01-06T19:56:36.364Z,11.03
2023-01-06T19:59:25.505Z,10.98
2023-01-06T20:02:07.892Z,11.08
2023-01-06T20:04:35.021Z,11.16
2023-01-06T20:07:02.289Z,11.20
2023-01-06T20:09:31.942Z,11.25
2023-01-06T20:12:00.162Z,11.28
2023-01-06T20:14:27.203Z,11.33
2023-01-06T20:16:54.465Z,11.36
2023-01-06T20:19:21.763Z,11.39
2023-01-06T20:21:49.833Z,11.38
2023-01-06T20:24:16.688Z,11.38
2023-01-06T20:26:43.860Z,11.39
2023-01-06T20:29:10.766Z,11.42
2023-01-06T20:31:37.964Z,11.46
2023-01-06T20:34:05.088Z,11.49
2023-01-06T20:36:32.216Z,11.56
2023-01-06T20:38:59.102Z,11.62
2023-01-06T20:41:25.912Z,11.66
2023-01-06T20:43:52.763Z,11.74
2023-01-06T20:46:19.701Z,11.81
2023-01-06T20:48:47.958Z,11.85
2023-01-06T20:51:14.899Z,11.90
2023-01-06T20:53:41.727Z,11.96
2023-01-06T20:56:08.716Z,11.99
2023-01-06T20:58:35.594Z,12.03
2023-01-06T21:01:02.591Z,12.06
2023-01-06T21:03:29.465Z,12.10
2023-01-06T21:05:56.258Z,12.13
2023-01-06T21:08:23.085Z,12.14
2023-01-06T21:10:49.911Z,12.15
2023-01-06T21:13:37.540Z,12.17
2023-01-06T21:16:04.398Z,12.15
2023-01-06T21:18:57.521Z,12.03
2023-01-06T21:21:50.432Z,12.02
2023-01-06T21:24:21.693Z,12.08
2023-01-06T21:27:09.743Z,12.05
2023-01-06T21:29:49.697Z,12.09
2023-01-06T21:32:16.675Z,12.08
2023-01-06T21:34:43.590Z,12.11
2023-01-06T21:37:10.479Z,12.08
2023-01-06T21:39:37.235Z,12.09
2023-01-06T21:42:41.878Z,12.07
2023-01-06T21:45:12.176Z,12.03
2023-01-06T21:47:38.902Z,12.07
2023-01-06T21:50:06.349Z,12.09
2023-01-06T21:52:33.278Z,12.10
2023-01-06T21:55:00.052Z,12.10
2023-01-06T21:57:27.903Z,12.14
2023-01-06T21:59:55.323Z,12.15
2023-01-06T22:02:22.432Z,12.17
2023-01-06T22:04:52.272Z,12.18
2023-01-06T22:07:20.991Z,12.17
2023-01-06T22:09:48.209Z,12.19
2023-01-06T22:12:22.859Z,12.16
2023-01-06T22:14:57.381Z,12.13
2023-01-06T22:17:27.016Z,12.12
2023-01-06T22:19:54.925Z,12.10
2023-01-06T22:22:22.733Z,12.03
2023-01-06T22:24:52.600Z,12.04
2023-01-06T22:27:19.340Z,12.03
2023-01-06T22:29:46.055Z,12.00
2023-01-06T22:32:16.028Z,11.93
2023-01-06T22:34:42.782Z,11.87
2023-01-06T22:37:09.576Z,11.83
2023-01-06T22:39:38.975Z,11.81
2023-01-06T22:42:06.240Z,11.78
2023-01-06T22:44:33.003Z,11.76
2023-01-06T22:47:00.808Z,11.75
2023-01-06T22:49:27.525Z,11.71
2023-01-06T22:51:54.260Z,11.63
2023-01-06T22:54:20.945Z,11.60
2023-01-06T22:56:50.631Z,11.54
2023-01-06T22:59:17.436Z,11.47
2023-01-06T23:01:44.530Z,11.43
2023-01-06T23:04:12.199Z,11.44
2023-01-06T23:06:39.390Z,11.42
2023-01-06T23:09:06.696Z,11.41
2023-01-06T23:11:35.407Z,11.40
2023-01-06T23:14:02.164Z,11.34
2023-01-06T23:16:30.312Z,11.32
2023-01-06T23:18:57.315Z,11.30
2023-01-06T23:21:26.746Z,11.26
2023-01-06T23:23:54.201Z,11.24
2023-01-06T23:26:25.166Z,11.23
2023-01-06T23:28:53.349Z,11.26
2023-01-06T23:31:35.445Z,11.28
2023-01-06T23:34:06.426Z,11.33
2023-01-06T23:36:33.707Z,11.40
2023-01-06T23:39:02.623Z,11.44
2023-01-06T23:41:31.331Z,11.49
2023-01-06T23:43:58.719Z,11.53
2023-01-06T23:46:36.922Z,11.53
2023-01-06T23:49:04.377Z,11.66
2023-01-06T23:51:32.360Z,11.71
2023-01-06T23:54:02.380Z,11.73
2023-01-06T23:56:31.020Z,11.77
2023-01-06T23:58:59.529Z,11.78
